MMCL 090543Z 03005KT 10SM SKC 18/10 A2995 RMK SLP142 52005 953 FU HZY= 090543

MMCL 090442Z 00000KT 10SM SKC 18/10 A2996 RMK HZY= 090443

MMCL 090340Z 00000KT 10SM SKC 19/10 A2995 RMK HZY= 090340

MMCL 090244Z 00000KT 10SM SKC 21/10 A2994 RMK SLP137 52018 951 HZY= 090250

MMCL 090144Z 00000KT 10SM FEW130 22/08 A2992 RMK 8/030= 090145

MMCL 090045Z 00000KT 10SM FEW130 SCT250 25/05 A2991 RMK 8/032= 090046

MMCL 082243Z 26005KT 10SM SCT250 32/04 A2989 RMK 8/002 HZY= 082243

MMCL 082143Z 31006KT 10SM SCT250 32/05 A2990 RMK 8/002 ISOL CU= 082144

MMCL 082042Z 29006KT 10SM SCT140 BKN250 31/08 A2992 RMK SLP128 57027 900 8/032 HZY= 082043

MMCL 081946Z 35005KT 10SM FEW120 SCT230 31/09 A2993 RMK 8/032 CLMNA FU W ISOL SC= 081947

MMCL 081850Z 36002KT 10SM FEW040 SCT120 SCT230 29/07 A2996 RMK 8/532= 081851

MMCL 081747Z 02006KT 10SM FEW100 SCT230 27/08 A2999 RMK SLP155 52007 900 8/032 ISOL SC= 081748

MMCL 081653Z 05007KT 10SM FEW080 SCT230 25/09 A3000 RMK 8/032 ISOL SC= 081653

MMCL 081540Z 01004KT 10SM FEW080 SCT230 21/09 A2999 RMK 8/032= 081540

MMCL 081449Z 04004KT 10SM FEW080 SCT230 17/09 A2998 RMK SLP148 5//// 902 8/032= 081450

MMCL 081349Z 04005KT 10SM FEW025 15/08 A2996 RMK 8/500 ISOL AC CI HZY= 081349

MMCL 081251Z 04005KT 10SM SKC 15/08 A2995 RMK HZY RTS= 081252

MMCL 080545Z 00000KT 10SM SKC 17/10 A2997 RMK SLP145 52007 956 HZY= 080546

MMCL 080444Z 00000KT 10SM SKC 18/10 A2996 RMK HZY= 080444

MMCL 080345Z 00000KT 10SM SKC 19/09 A2995 RMK HZY= 080345

MMCL 080244Z 00000KT 10SM SKC 21/09 A2994 RMK SLP138 52015 959 HZY= 080246

MMCL 080145Z 31006KT 10SM SKC 23/08 A2993 RMK ISOL CI HZY= 080146

MMCL 080040Z 29003KT 10SM SCT230 25/05 A2991 RMK 8/002 HZY= 080040

MMCL 072342Z 29007KT 10SM SCT230 28/06 A2990 RMK SLP123 57005 963 8/002= 072343

MMCL 072242Z 30006KT 10SM SCT230 31/07 A2989 RMK 8/002= 072242

MMCL 072151Z 29006KT 10SM SCT230 31/06 A2990 RMK 8/002= 072151

MMCL 072050Z 25004KT 10SM BKN230 31/07 A2991 RMK SLP128 57027 958 8/008= 072050

MMCL 071943Z 36005KT 10SM OVC230 30/08 A2994 RMK 8/007 BINOVC HZY= 071944

MMCL 071841Z 31004KT 10SM BKN230 29/10 A2997 RMK 8/008 HZY= 071842

MMCL 071741Z 00000KT 10SM OVC230 27/12 A2999 RMK SLP155 52009 959 8/007= 071742

MMCL 071646Z 03004KT 10SM OVC230 24/13 A2999 RMK 8/007= 071646

MMCL 071546Z 04006KT 10SM OVC230 21/13 A2998 RMK 8/007= 071546

MMCL 071440Z 04003KT 10SM BKN230 17/12 A2997 RMK SLP146 963 8/008= 071440

MMCL 071342Z 05005KT 10SM BKN230 17/12 A2994 RMK 8/008= 071343

MMCL 071300Z RTD 03005KT 10SM BKN230 16/12 A2993 RMK 8/008 RTS= 071300

MMCL 070540Z 00000KT 10SM SKC 18/12 A2998 RMK SLP151 52004 907= 070540

MMCL 070450Z 00000KT 10SM SKC 19/11 A2998= 070451

MMCL 070341Z 00000KT 10SM SKC 20/11 A2998= 070341

MMCL 070240Z 00000KT 10SM SKC 21/10 A2997 RMK SLP147 52011 919= 070240

MMCL 070140Z 30003KT 10SM SKC 23/10 A2997 RMK ISOL CI= 070147

MMCL 070048Z 00000KT 10SM FEW230 24/13 A2995 RMK 8/009 ISOL SC AC= 070049

MMCL 062348Z 24005KT 10SM FEW030 SCT230 28/13 A2994 RMK SLP136 54000 919 8/108= 062349

MMCL 062241Z 24005KT 10SM FEW030 SCT230 30/10 A2993 RMK 8/109 ISOL AC= 062242

MMCL 062145Z 26007KT 10SM SCT030 SCT120 BKN230 31/14 A2994 RMK 8/138= 062146

MMCL 062045Z 18006KT 10SM SCT030 SCT120 30/16 A2994 RMK SLP136 57028 915 8/130 ISOL CI= 062046

MMCL 061947Z 24005KT 10SM SCT030 SCT150 29/18 A2996 RMK 8/530 HZY= 061948

MMCL 061846Z 00000KT 10SM SCT035 SCT150 29/18 A2999 RMK 8/530 HZY= 061847

MMCL 061745Z 18005KT 10SM SCT150 28/16 A3002 RMK SLP164 52005 923 8/030 ISOL CI HZY= 061746

MMCL 061648Z 00000KT 10SM SCT150 26/14 A3002 RMK 8/030 HZY= 061649

MMCL 061543Z 00000KT 10SM SCT150 23/14 A3002 RMK 8/030 HZY= 061544